createdAt,value
2018-12-05T00:00:35.773Z,102706.48
2018-12-05T00:03:14.625Z,102697.11
2018-12-05T00:05:50.597Z,102697.63
2018-12-05T00:08:28.874Z,102697.30
2018-12-05T00:11:03.308Z,102695.92
2018-12-05T00:13:40.338Z,102696.70
2018-12-05T00:16:17.692Z,102702.30
2018-12-05T00:18:56.134Z,102704.58
2018-12-05T00:21:32.652Z,102702.98
2018-12-05T00:24:09.544Z,102701.99
2018-12-05T00:26:46.316Z,102706.17
2018-12-05T00:32:10.934Z,102705.48
2018-12-05T00:34:47.974Z,102712.77
2018-12-05T00:37:25.641Z,102715.14
2018-12-05T00:40:01.996Z,102715.25
2018-12-05T00:42:37.834Z,102715.06
2018-12-05T00:45:13.448Z,102715.07
2018-12-05T00:47:52.479Z,102726.72
2018-12-05T00:50:30.686Z,102721.44
2018-12-05T00:53:07.614Z,102726.02
2018-12-05T00:55:45.366Z,102720.05
2018-12-05T00:58:23.569Z,102729.80
2018-12-05T01:00:59.262Z,102723.80
2018-12-05T01:03:35.974Z,102722.80
2018-12-05T01:06:13.952Z,102716.75
2018-12-05T01:08:50.664Z,102724.20
2018-12-05T01:11:28.239Z,102725.48
2018-12-05T01:14:05.102Z,102732.64
2018-12-05T01:16:42.109Z,102726.87
2018-12-05T01:19:20.777Z,102722.69
2018-12-05T01:21:58.428Z,102718.58
2018-12-05T01:24:34.658Z,102719.79
2018-12-05T01:27:04.259Z,102718.79
2018-12-05T01:29:33.720Z,102721.55
2018-12-05T01:34:53.673Z,102720.95
2018-12-05T01:37:23.101Z,102722.13
2018-12-05T01:39:52.491Z,102722.77
2018-12-05T01:42:22.614Z,102722.13
2018-12-05T01:44:57.129Z,102717.57
2018-12-05T01:47:27.155Z,102710.99
2018-12-05T01:49:56.575Z,102712.86
2018-12-05T01:52:25.977Z,102708.67
2018-12-05T01:54:55.393Z,102708.48
2018-12-05T01:57:24.843Z,102715.52
2018-12-05T01:59:54.330Z,102715.63
2018-12-05T02:02:23.746Z,102715.11
2018-12-05T02:04:56.631Z,102719.97
2018-12-05T02:10:07.077Z,102719.62
2018-12-05T02:12:36.556Z,102710.75
2018-12-05T02:15:06.725Z,102712.13
2018-12-05T02:17:36.143Z,102707.36
2018-12-05T02:20:06.808Z,102703.00
2018-12-05T02:22:36.191Z,102703.29
2018-12-05T02:25:11.991Z,102693.84
2018-12-05T02:27:41.454Z,102689.85
2018-12-05T02:30:11.051Z,102697.20
2018-12-05T02:32:41.304Z,102696.31
2018-12-05T02:35:10.759Z,102699.41
2018-12-05T02:37:40.117Z,102695.63
2018-12-05T02:40:09.694Z,102694.93
2018-12-05T02:42:39.074Z,102688.47
2018-12-05T02:45:08.582Z,102681.13
2018-12-05T02:47:37.926Z,102677.25
2018-12-05T02:52:48.392Z,102675.65
2018-12-05T02:55:17.745Z,102678.52
2018-12-05T02:57:47.084Z,102675.94
2018-12-05T03:00:16.519Z,102667.18
2018-12-05T03:02:45.901Z,102667.98
2018-12-05T03:05:15.635Z,102663.91
2018-12-05T03:07:45.037Z,102675.21
2018-12-05T03:10:14.480Z,102672.34
2018-12-05T03:12:43.897Z,102669.28
2018-12-05T03:16:16.089Z,102675.91
2018-12-05T03:18:45.438Z,102670.94
2018-12-05T03:21:14.938Z,102667.47
2018-12-05T03:23:44.299Z,102673.13
2018-12-05T03:26:13.652Z,102664.20
2018-12-05T03:28:42.982Z,102664.59
2018-12-05T03:31:12.357Z,102666.61
2018-12-05T03:33:41.737Z,102670.20
2018-12-05T03:36:11.210Z,102661.35
2018-12-05T03:38:40.685Z,102662.88
2018-12-05T03:41:10.199Z,102657.42
2018-12-05T03:43:39.758Z,102661.49
2018-12-05T03:46:09.188Z,102654.34
2018-12-05T03:48:38.609Z,102659.91
2018-12-05T03:51:07.977Z,102656.52
2018-12-05T03:53:37.350Z,102656.44
2018-12-05T03:56:06.971Z,102671.54
2018-12-05T03:58:37.341Z,102665.48
2018-12-05T04:01:08.173Z,102673.72
2018-12-05T04:03:37.553Z,102675.90
2018-12-05T04:06:06.893Z,102665.08
2018-12-05T04:08:36.347Z,102675.90
2018-12-05T04:11:06.121Z,102664.45
2018-12-05T04:13:35.481Z,102677.00
2018-12-05T04:16:06.280Z,102677.80
2018-12-05T04:18:35.624Z,102671.63
2018-12-05T04:21:06.223Z,102672.41
2018-12-05T04:23:35.564Z,102666.23
2018-12-05T04:31:07.261Z,102671.28
2018-12-05T04:33:36.587Z,102671.28
2018-12-05T04:36:06.022Z,102672.46
2018-12-05T04:38:35.360Z,102672.17
2018-12-05T04:41:05.957Z,102672.30
2018-12-05T04:43:35.284Z,102673.87
2018-12-05T04:46:04.608Z,102674.88
2018-12-05T04:48:33.950Z,102668.91
2018-12-05T04:51:03.333Z,102673.78
2018-12-05T04:53:32.667Z,102675.48
2018-12-05T04:56:02.756Z,102677.37
2018-12-05T04:58:32.241Z,102668.73
2018-12-05T05:01:01.577Z,102670.91
2018-12-05T05:03:34.139Z,102668.33
2018-12-05T05:06:03.525Z,102670.63
2018-12-05T05:08:32.886Z,102662.88
2018-12-05T05:11:02.269Z,102671.80
2018-12-05T05:13:31.836Z,102667.52
2018-12-05T05:16:01.157Z,102667.16
2018-12-05T05:18:30.573Z,102668.04
2018-12-05T05:20:59.912Z,102671.91
2018-12-05T05:23:29.274Z,102675.50
2018-12-05T05:25:58.627Z,102675.99
2018-12-05T05:28:28.039Z,102677.00
2018-12-05T05:30:57.358Z,102673.64
2018-12-05T05:33:26.737Z,102682.68
2018-12-05T05:38:25.685Z,102687.84
2018-12-05T05:40:55.032Z,102683.45
2018-12-05T05:46:56.004Z,102679.27
2018-12-05T05:49:25.406Z,102680.07
2018-12-05T05:51:54.779Z,102676.97
2018-12-05T05:54:24.483Z,102675.56
2018-12-05T05:56:53.881Z,102670.72
2018-12-05T06:02:00.277Z,102679.92
2018-12-05T06:04:29.648Z,102674.64
2018-12-05T06:06:58.976Z,102672.75
2018-12-05T06:09:28.297Z,102678.60
2018-12-05T06:11:57.670Z,102675.41
2018-12-05T06:14:26.978Z,102678.28
2018-12-05T06:19:36.777Z,102674.37
2018-12-05T06:22:06.091Z,102676.27
2018-12-05T06:24:35.441Z,102670.98
2018-12-05T06:27:06.069Z,102667.44
2018-12-05T06:29:35.528Z,102662.44
2018-12-05T06:32:06.114Z,102664.73
2018-12-05T06:34:35.462Z,102657.88
2018-12-05T06:39:35.790Z,102669.33
2018-12-05T06:42:06.466Z,102673.09
2018-12-05T06:44:35.796Z,102665.14
2018-12-05T06:47:05.989Z,102672.20
2018-12-05T06:49:35.356Z,102671.91
2018-12-05T06:57:05.061Z,102673.89
2018-12-05T06:59:34.474Z,102671.80
2018-12-05T07:02:03.836Z,102672.00
2018-12-05T07:04:33.165Z,102669.94
2018-12-05T07:07:02.571Z,102672.92
2018-12-05T07:09:31.938Z,102677.39
2018-12-05T07:12:01.281Z,102677.48
2018-12-05T07:14:30.642Z,102673.23
2018-12-05T07:16:59.995Z,102670.13
2018-12-05T07:19:29.430Z,102665.77
2018-12-05T07:21:59.134Z,102677.59
2018-12-05T07:24:28.626Z,102671.14
2018-12-05T07:26:58.049Z,102672.03
2018-12-05T07:29:27.604Z,102671.14
2018-12-05T07:31:57.370Z,102669.16
2018-12-05T07:34:26.745Z,102671.86
2018-12-05T07:36:56.131Z,102677.52
2018-12-05T07:39:25.493Z,102670.57
2018-12-05T07:41:54.881Z,102672.06
2018-12-05T07:44:24.277Z,102671.28
2018-12-05T07:46:53.733Z,102669.59
2018-12-05T07:49:23.167Z,102665.84
2018-12-05T07:54:34.266Z,102661.16
2018-12-05T07:57:03.632Z,102665.75
2018-12-05T07:59:33.074Z,102665.55
2018-12-05T08:02:02.462Z,102659.31
2018-12-05T08:04:31.896Z,102666.48
2018-12-05T08:09:42.353Z,102652.19
2018-12-05T08:12:12.500Z,102647.62
2018-12-05T08:14:41.874Z,102644.74
2018-12-05T08:17:11.349Z,102641.17
2018-12-05T08:19:40.705Z,102643.58
2018-12-05T08:22:10.136Z,102643.37
2018-12-05T08:24:39.520Z,102636.73
2018-12-05T08:27:08.943Z,102635.23
2018-12-05T08:29:38.377Z,102590.95
2018-12-05T08:32:07.784Z,102623.31
2018-12-05T08:34:37.213Z,102621.84
2018-12-05T08:37:06.652Z,102623.44
2018-12-05T08:39:36.223Z,102621.15
2018-12-05T08:42:06.325Z,102622.73
2018-12-05T08:44:35.683Z,102613.10
2018-12-05T08:47:06.341Z,102609.00
2018-12-05T08:49:36.400Z,102618.34
2018-12-05T08:52:06.534Z,102599.55
2018-12-05T08:54:35.891Z,102595.98
2018-12-05T08:57:07.241Z,102599.65
2018-12-05T08:59:36.603Z,102597.17
2018-12-05T09:02:06.423Z,102598.23
2018-12-05T09:04:35.956Z,102602.41
2018-12-05T09:07:06.355Z,102595.27
2018-12-05T09:09:35.820Z,102597.16
2018-12-05T09:12:05.283Z,102589.68
2018-12-05T09:14:34.702Z,102586.87
2018-12-05T09:17:04.123Z,102587.08
2018-12-05T09:19:33.644Z,102593.25
2018-12-05T09:22:03.054Z,102582.78
2018-12-05T09:24:32.404Z,102574.71
2018-12-05T09:27:01.772Z,102575.89
2018-12-05T09:29:31.143Z,102579.16
2018-12-05T09:32:00.699Z,102576.86
2018-12-05T09:34:30.090Z,102577.92
2018-12-05T09:36:59.450Z,102591.86
2018-12-05T09:39:28.811Z,102591.55
2018-12-05T09:41:58.157Z,102593.36
2018-12-05T09:44:27.504Z,102587.58
2018-12-05T09:46:56.854Z,102574.40
2018-12-05T09:49:26.181Z,102570.01
2018-12-05T09:51:55.566Z,102566.98
2018-12-05T09:54:24.948Z,102561.05
2018-12-05T09:56:54.442Z,102567.09
2018-12-05T09:59:23.856Z,102567.63
2018-12-05T10:01:53.353Z,102560.23
2018-12-05T10:04:22.869Z,102557.29
2018-12-05T10:06:52.563Z,102544.28
2018-12-05T10:09:22.064Z,102543.42
2018-12-05T10:11:51.491Z,102535.91
2018-12-05T10:14:20.891Z,102540.62
2018-12-05T10:16:50.586Z,102528.02
2018-12-05T10:19:20.449Z,102532.27
2018-12-05T10:21:50.381Z,102515.58
2018-12-05T10:24:19.998Z,102515.98
2018-12-05T10:26:49.589Z,102512.04
2018-12-05T10:29:19.240Z,102505.80
2018-12-05T10:31:48.765Z,102501.78
2018-12-05T10:34:18.388Z,102502.20
2018-12-05T10:36:48.610Z,102488.73
2018-12-05T10:39:18.247Z,102483.16
2018-12-05T10:41:48.079Z,102485.58
2018-12-05T10:44:17.711Z,102477.66
2018-12-05T10:46:47.449Z,102481.53
2018-12-05T10:49:17.235Z,102480.66
2018-12-05T10:51:46.834Z,102479.19
2018-12-05T10:54:16.424Z,102476.92
2018-12-05T10:56:46.100Z,102470.72
2018-12-05T10:59:15.818Z,102461.16
2018-12-05T11:03:56.828Z,102463.81
2018-12-05T11:08:35.739Z,102460.00
2018-12-05T11:11:12.126Z,102451.29
2018-12-05T11:13:46.749Z,102447.80
2018-12-05T11:16:21.556Z,102446.87
2018-12-05T11:18:56.022Z,102441.98
2018-12-05T11:21:30.527Z,102438.45
2018-12-05T11:24:09.022Z,102436.97
2018-12-05T11:26:40.326Z,102422.66
2018-12-05T11:29:09.668Z,102422.66
2018-12-05T11:31:39.040Z,102426.09
2018-12-05T11:34:08.428Z,102418.30
2018-12-05T11:36:37.821Z,102418.77
2018-12-05T11:39:09.109Z,102407.24
2018-12-05T11:41:38.503Z,102390.34
2018-12-05T11:44:07.892Z,102397.83
2018-12-05T11:46:37.259Z,102396.42
2018-12-05T11:49:07.136Z,102396.63
2018-12-05T11:51:36.531Z,102387.41
2018-12-05T11:54:06.313Z,102380.41
2018-12-05T11:56:35.705Z,102382.80
2018-12-05T12:01:47.785Z,102378.98
2018-12-05T12:04:17.256Z,102383.52
2018-12-05T12:06:46.642Z,102383.67
2018-12-05T12:09:16.190Z,102381.20
2018-12-05T12:11:45.642Z,102381.28
2018-12-05T12:14:15.074Z,102380.11
2018-12-05T12:16:44.420Z,102384.68
2018-12-05T12:19:13.812Z,102371.48
2018-12-05T12:21:44.301Z,102365.61
2018-12-05T12:26:54.417Z,102360.52
2018-12-05T12:29:23.925Z,102360.59
2018-12-05T12:31:54.225Z,102358.04
2018-12-05T12:34:24.197Z,102354.63
2018-12-05T12:36:53.589Z,102358.78
2018-12-05T12:39:24.098Z,102354.53
2018-12-05T12:41:53.848Z,102354.69
2018-12-05T12:44:23.278Z,102355.27
2018-12-05T12:46:52.637Z,102345.43
2018-12-05T12:49:23.106Z,102343.21
2018-12-05T12:51:52.622Z,102336.70
2018-12-05T12:54:22.191Z,102333.75
2018-12-05T12:56:51.556Z,102316.48
2018-12-05T12:59:21.017Z,102312.58
2018-12-05T13:01:50.415Z,102305.27
2018-12-05T13:04:20.214Z,102310.47
2018-12-05T13:06:49.681Z,102305.11
2018-12-05T13:09:19.105Z,102301.81
2018-12-05T13:11:48.574Z,102296.72
2018-12-05T13:14:17.963Z,102290.36
2018-12-05T13:16:47.450Z,102290.02
2018-12-05T13:19:16.926Z,102292.27
2018-12-05T13:21:46.290Z,102284.11
2018-12-05T13:24:15.695Z,102277.22
2018-12-05T13:26:45.430Z,102272.50
2018-12-05T13:29:14.947Z,102275.03
2018-12-05T13:31:44.353Z,102258.45
2018-12-05T13:34:13.834Z,102255.20
2018-12-05T13:36:43.302Z,102248.55
2018-12-05T13:39:12.833Z,102236.63
2018-12-05T13:41:42.205Z,102238.36
2018-12-05T13:44:11.621Z,102236.59
2018-12-05T13:46:40.995Z,102234.80
2018-12-05T13:49:10.434Z,102234.34
2018-12-05T13:51:40.007Z,102233.80
2018-12-05T13:54:09.403Z,102222.47
2018-12-05T13:56:38.752Z,102219.87
2018-12-05T14:01:49.403Z,102213.01
2018-12-05T14:04:18.822Z,102211.36
2018-12-05T14:06:48.152Z,102203.55
2018-12-05T14:09:17.727Z,102192.67
2018-12-05T14:11:47.052Z,102187.47
2018-12-05T14:14:16.540Z,102176.63
2018-12-05T14:16:45.990Z,102177.47
2018-12-05T14:19:15.446Z,102166.91
2018-12-05T14:21:44.918Z,102171.23
2018-12-05T14:24:14.342Z,102165.92
2018-12-05T14:26:43.696Z,102161.52
2018-12-05T14:29:13.099Z,102158.45
2018-12-05T14:31:45.026Z,102142.30
2018-12-05T14:34:15.795Z,102135.64
2018-12-05T14:36:45.180Z,102123.47
2018-12-05T14:41:55.215Z,102118.96
2018-12-05T14:44:24.656Z,102105.84
2018-12-05T14:46:54.035Z,102109.25
2018-12-05T14:49:23.397Z,102101.41
2018-12-05T14:51:52.799Z,102100.45
2018-12-05T14:54:22.288Z,102089.12
2018-12-05T14:56:51.636Z,102094.64
2018-12-05T14:59:21.155Z,102092.91
2018-12-05T15:01:50.592Z,102092.45
2018-12-05T15:04:20.009Z,102087.25
2018-12-05T15:06:49.369Z,102083.73
2018-12-05T15:09:19.270Z,102078.07
2018-12-05T15:11:48.653Z,102075.47
2018-12-05T15:14:18.028Z,102074.97
2018-12-05T15:16:47.477Z,102068.01
2018-12-05T15:19:16.852Z,102069.77
2018-12-05T15:21:46.216Z,102058.06
2018-12-05T15:24:15.862Z,102054.16
2018-12-05T15:26:45.217Z,102045.96
2018-12-05T15:29:14.553Z,102048.14
2018-12-05T15:31:43.912Z,102038.16
2018-12-05T15:34:13.340Z,102031.22
2018-12-05T15:36:42.776Z,102024.72
2018-12-05T15:39:12.366Z,102016.48
2018-12-05T15:41:41.875Z,102020.39
2018-12-05T15:46:42.925Z,102013.19
2018-12-05T15:49:12.437Z,102007.98
2018-12-05T15:51:42.059Z,101997.98
2018-12-05T15:54:11.551Z,101990.70
2018-12-05T15:56:41.207Z,101982.05
2018-12-05T15:59:10.763Z,101976.46
2018-12-05T16:01:40.278Z,101967.28
2018-12-05T16:04:09.798Z,101967.88
2018-12-05T16:06:39.418Z,101963.13
2018-12-05T16:09:09.722Z,101958.87
2018-12-05T16:11:39.534Z,101944.48
2018-12-05T16:14:09.323Z,101949.47
2018-12-05T16:16:39.262Z,101940.36
2018-12-05T16:19:08.798Z,101938.22
2018-12-05T16:24:15.055Z,101928.84
2018-12-05T16:26:44.395Z,101927.52
2018-12-05T16:29:13.796Z,101920.06
2018-12-05T16:31:43.129Z,101917.03
2018-12-05T16:34:12.480Z,101913.59
2018-12-05T16:36:41.859Z,101916.19
2018-12-05T16:39:11.363Z,101913.23
2018-12-05T16:41:40.714Z,101908.02
2018-12-05T16:44:13.010Z,101905.91
2018-12-05T16:46:41.447Z,101899.43
2018-12-05T16:49:10.764Z,101888.50
2018-12-05T16:51:40.125Z,101884.76
2018-12-05T16:54:09.682Z,101887.78
2018-12-05T16:56:39.045Z,101886.48
2018-12-05T16:59:08.371Z,101888.27
2018-12-05T17:01:37.721Z,101878.67
2018-12-05T17:04:07.264Z,101876.06
2018-12-05T17:06:36.691Z,101868.68
2018-12-05T17:09:08.235Z,101863.53
2018-12-05T17:11:37.600Z,101855.73
2018-12-05T17:14:07.161Z,101849.22
2018-12-05T17:16:36.518Z,101839.03
2018-12-05T17:19:06.096Z,101838.80
2018-12-05T17:21:35.451Z,101844.92
2018-12-05T17:24:06.065Z,101843.26
2018-12-05T17:26:35.432Z,101834.99
2018-12-05T17:29:06.113Z,101831.54
2018-12-05T17:31:35.516Z,101832.03
2018-12-05T17:34:06.170Z,101829.87
2018-12-05T17:36:35.618Z,101827.27
2018-12-05T17:39:09.455Z,101826.46
2018-12-05T17:41:38.787Z,101828.58
2018-12-05T17:44:08.173Z,101821.25
2018-12-05T17:46:37.551Z,101815.55
2018-12-05T17:49:07.003Z,101803.45
2018-12-05T17:51:36.350Z,101799.48
2018-12-05T17:54:06.292Z,101792.33
2018-12-05T17:56:35.614Z,101795.58
2018-12-05T17:59:06.226Z,101799.94
2018-12-05T18:01:35.575Z,101797.81
2018-12-05T18:04:06.206Z,101798.27
2018-12-05T18:06:35.685Z,101790.46
2018-12-05T18:09:09.017Z,101775.92
2018-12-05T18:11:38.353Z,101784.89
2018-12-05T18:14:07.800Z,101771.05
2018-12-05T18:16:37.137Z,101768.84
2018-12-05T18:19:06.774Z,101763.24
2018-12-05T18:21:36.567Z,101751.52
2018-12-05T18:24:06.315Z,101749.38
2018-12-05T18:26:35.663Z,101741.11
2018-12-05T18:29:06.405Z,101734.98
2018-12-05T18:31:35.775Z,101732.45
2018-12-05T18:34:06.465Z,101723.78
2018-12-05T18:36:35.793Z,101722.97
2018-12-05T18:39:08.225Z,101716.03
2018-12-05T18:41:37.679Z,101719.13
2018-12-05T18:44:07.054Z,101710.03
2018-12-05T18:46:36.584Z,101712.27
2018-12-05T18:49:06.439Z,101704.95
2018-12-05T18:51:35.769Z,101705.03
2018-12-05T18:54:06.409Z,101705.48
2018-12-05T18:56:35.927Z,101698.21
2018-12-05T18:59:06.559Z,101692.21
2018-12-05T19:01:35.888Z,101696.57
2018-12-05T19:04:06.098Z,101687.82
2018-12-05T19:06:35.414Z,101694.45
2018-12-05T19:09:07.796Z,101690.56
2018-12-05T19:11:37.404Z,101682.81
2018-12-05T19:14:12.049Z,101671.54
2018-12-05T19:16:41.391Z,101670.23
2018-12-05T19:19:10.931Z,101670.30
2018-12-05T19:21:40.268Z,101670.80
2018-12-05T19:24:09.806Z,101663.50
2018-12-05T19:26:39.274Z,101660.07
2018-12-05T19:29:08.650Z,101661.88
2018-12-05T19:31:38.046Z,101665.36
2018-12-05T19:34:07.517Z,101664.12
2018-12-05T19:36:36.885Z,101665.42
2018-12-05T19:39:09.358Z,101668.08
2018-12-05T19:44:14.543Z,101657.23
2018-12-05T19:46:45.805Z,101655.81
2018-12-05T19:49:16.034Z,101658.05
2018-12-05T19:51:45.615Z,101661.96
2018-12-05T19:54:15.329Z,101653.21
2018-12-05T19:56:45.142Z,101648.91
2018-12-05T19:59:17.090Z,101647.92
2018-12-05T20:01:46.911Z,101640.47
2018-12-05T20:04:16.509Z,101642.63
2018-12-05T20:06:46.131Z,101635.63
2018-12-05T20:09:15.739Z,101626.06
2018-12-05T20:11:45.535Z,101632.16
2018-12-05T20:14:20.599Z,101629.60
2018-12-05T20:16:50.288Z,101618.70
2018-12-05T20:19:20.518Z,101616.15
2018-12-05T20:21:50.336Z,101611.39
2018-12-05T20:24:20.132Z,101610.57
2018-12-05T20:26:49.754Z,101602.33
2018-12-05T20:29:19.403Z,101604.50
2018-12-05T20:31:49.128Z,101591.83
2018-12-05T20:34:18.754Z,101599.72
2018-12-05T20:36:48.900Z,101588.48
2018-12-05T20:39:25.693Z,101575.91
2018-12-05T20:41:49.948Z,101578.00
2018-12-05T20:44:20.621Z,101573.35
2018-12-05T20:46:50.328Z,101567.23
2018-12-05T20:49:19.957Z,101557.72
2018-12-05T20:51:49.501Z,101562.50
2018-12-05T20:54:19.195Z,101557.73
2018-12-05T20:56:48.924Z,101553.44
2018-12-05T20:59:18.661Z,101553.94
2018-12-05T21:01:48.243Z,101540.86
2018-12-05T21:04:17.948Z,101546.52
2018-12-05T21:06:47.478Z,101538.30
2018-12-05T21:09:17.078Z,101536.58
2018-12-05T21:11:46.694Z,101518.39
2018-12-05T21:14:16.300Z,101517.96
2018-12-05T21:16:46.027Z,101521.02
2018-12-05T21:22:30.169Z,101525.30
2018-12-05T21:24:59.852Z,101520.56
2018-12-05T21:27:29.550Z,101520.94
2018-12-05T21:29:59.373Z,101518.02
2018-12-05T21:32:29.213Z,101520.56
2018-12-05T21:34:59.347Z,101513.67
2018-12-05T21:37:29.241Z,101515.97
2018-12-05T21:39:58.837Z,101499.89
2018-12-05T21:42:29.654Z,101509.52
2018-12-05T21:44:59.390Z,101507.83
2018-12-05T21:47:29.101Z,101506.54
2018-12-05T21:52:44.300Z,101502.73
2018-12-05T21:55:14.448Z,101494.91
2018-12-05T22:00:21.447Z,101497.20
2018-12-05T22:05:22.962Z,101493.30
2018-12-05T22:07:56.970Z,101501.56
2018-12-05T22:10:26.877Z,101496.83
2018-12-05T22:12:56.809Z,101494.22
2018-12-05T22:15:26.504Z,101494.22
2018-12-05T22:17:57.006Z,101492.04
2018-12-05T22:20:26.781Z,101493.36
2018-12-05T22:22:56.198Z,101491.23
2018-12-05T22:25:25.703Z,101494.22
2018-12-05T22:27:55.122Z,101497.27
2018-12-05T22:30:24.473Z,101501.19
2018-12-05T22:32:53.914Z,101496.34
2018-12-05T22:35:23.293Z,101489.00
2018-12-05T22:37:52.654Z,101488.52
2018-12-05T22:40:23.011Z,101479.00
2018-12-05T22:42:52.927Z,101483.31
2018-12-05T22:45:22.414Z,101473.27
2018-12-05T22:47:51.725Z,101470.26
2018-12-05T22:50:21.476Z,101471.56
2018-12-05T22:52:50.820Z,101466.74
2018-12-05T22:55:20.265Z,101466.73
2018-12-05T22:57:49.613Z,101460.16
2018-12-05T23:00:24.360Z,101451.91
2018-12-05T23:02:53.733Z,101453.20
2018-12-05T23:05:23.215Z,101451.84
2018-12-05T23:07:52.551Z,101449.28
2018-12-05T23:10:22.074Z,101447.08
2018-12-05T23:12:51.536Z,101450.59
2018-12-05T23:15:20.958Z,101442.78
2018-12-05T23:17:50.293Z,101437.95
2018-12-05T23:20:19.767Z,101446.30
2018-12-05T23:22:49.157Z,101443.69
2018-12-05T23:25:28.414Z,101437.62
2018-12-05T23:27:58.576Z,101437.19
2018-12-05T23:30:27.913Z,101433.70
2018-12-05T23:32:57.620Z,101433.33
2018-12-05T23:35:27.004Z,101420.72
2018-12-05T23:37:56.475Z,101418.98
2018-12-05T23:40:25.809Z,101414.22
2018-12-05T23:42:56.423Z,101420.36
2018-12-05T23:45:25.761Z,101403.88
2018-12-05T23:47:56.042Z,101410.84
2018-12-05T23:50:25.453Z,101402.64
2018-12-05T23:52:54.824Z,101408.33
2018-12-05T23:55:25.752Z,101409.66
2018-12-05T23:57:55.101Z,101402.70
